createdAt,value
2019-02-24T00:00:45.453Z,100056.44
2019-02-24T00:03:17.529Z,100053.55
2019-02-24T00:05:49.427Z,100062.56
2019-02-24T00:08:21.690Z,100059.11
2019-02-24T00:10:54.390Z,100067.16
2019-02-24T00:13:26.098Z,100070.22
2019-02-24T00:15:58.737Z,100073.16
2019-02-24T00:18:42.025Z,100077.52
2019-02-24T00:21:13.669Z,100071.69
2019-02-24T00:23:45.377Z,100079.78
2019-02-24T00:26:17.097Z,100073.23
2019-02-24T00:28:49.025Z,100082.11
2019-02-24T00:31:21.263Z,100078.09
2019-02-24T00:33:52.985Z,100081.86
2019-02-24T00:36:26.581Z,100085.84
2019-02-24T00:38:58.461Z,100086.55
2019-02-24T00:41:31.116Z,100081.22
2019-02-24T00:44:02.738Z,100082.05
2019-02-24T00:46:35.288Z,100073.84
2019-02-24T00:49:07.242Z,100069.47
2019-02-24T00:51:38.869Z,100064.56
2019-02-24T00:54:10.560Z,100054.43
2019-02-24T00:56:42.377Z,100072.12
2019-02-24T00:59:15.266Z,100059.40
2019-02-24T01:01:46.957Z,100067.82
2019-02-24T01:04:18.621Z,100065.28
2019-02-24T01:06:50.474Z,100050.55
2019-02-24T01:09:22.324Z,100051.02
2019-02-24T01:11:54.534Z,100039.59
2019-02-24T01:14:26.239Z,100033.97
2019-02-24T01:16:58.267Z,100047.66
2019-02-24T01:19:30.020Z,100052.17
2019-02-24T01:22:01.501Z,100046.27
2019-02-24T01:24:33.030Z,100055.11
2019-02-24T01:27:04.819Z,100051.45
2019-02-24T01:29:36.441Z,100056.29
2019-02-24T01:32:08.006Z,100055.53
2019-02-24T01:34:39.635Z,100042.89
2019-02-24T01:37:11.341Z,100041.35
2019-02-24T01:39:43.150Z,100050.41
2019-02-24T01:42:14.676Z,100051.67
2019-02-24T01:44:46.207Z,100046.22
2019-02-24T01:47:17.736Z,100054.92
2019-02-24T01:49:49.365Z,100047.87
2019-02-24T01:52:20.905Z,100030.66
2019-02-24T01:54:52.591Z,100049.16
2019-02-24T01:57:24.157Z,100045.95
2019-02-24T01:59:55.909Z,100045.23
2019-02-24T02:02:27.462Z,100045.75
2019-02-24T02:05:00.295Z,100039.81
2019-02-24T02:07:31.889Z,100048.23
2019-02-24T02:10:03.382Z,100051.49
2019-02-24T02:12:35.064Z,100029.83
2019-02-24T02:15:07.159Z,100028.80
2019-02-24T02:17:38.840Z,100027.66
2019-02-24T02:20:10.827Z,100038.02
2019-02-24T02:22:42.494Z,100028.27
2019-02-24T02:25:14.128Z,100039.63
2019-02-24T02:27:45.631Z,100031.93
2019-02-24T02:30:17.342Z,100027.35
2019-02-24T02:32:49.064Z,100028.77
2019-02-24T02:35:21.022Z,100037.69
2019-02-24T02:37:52.811Z,100025.34
2019-02-24T02:40:24.471Z,100028.14
2019-02-24T02:42:56.068Z,100027.17
2019-02-24T02:45:28.188Z,100014.25
2019-02-24T02:47:59.888Z,100027.92
2019-02-24T02:50:31.501Z,100016.58
2019-02-24T02:53:03.120Z,100016.18
2019-02-24T02:55:34.814Z,100027.81
2019-02-24T02:58:06.375Z,100010.55
2019-02-24T03:00:38.248Z,100012.91
2019-02-24T03:03:09.766Z,100020.84
2019-02-24T03:05:45.022Z,100013.92
2019-02-24T03:08:16.603Z,100007.55
2019-02-24T03:10:48.269Z,100005.47
2019-02-24T03:13:19.967Z,99993.70
2019-02-24T03:15:51.628Z,99988.50
2019-02-24T03:18:23.407Z,99995.13
2019-02-24T03:20:55.096Z,99982.11
2019-02-24T03:23:27.202Z,99987.97
2019-02-24T03:25:58.900Z,99992.84
2019-02-24T03:28:30.615Z,99996.45
2019-02-24T03:31:02.211Z,99993.48
2019-02-24T03:33:33.816Z,99991.94
2019-02-24T03:36:05.618Z,99993.13
2019-02-24T03:38:37.375Z,99974.49
2019-02-24T03:41:09.200Z,99981.88
2019-02-24T03:43:40.852Z,99978.59
2019-02-24T03:46:12.654Z,99962.26
2019-02-24T03:48:44.472Z,99953.59
2019-02-24T03:51:16.109Z,99969.87
2019-02-24T03:53:47.562Z,99976.80
2019-02-24T03:56:19.226Z,99972.22
2019-02-24T03:58:50.877Z,99970.53
2019-02-24T04:01:22.664Z,99959.72
2019-02-24T04:03:54.229Z,99960.39
2019-02-24T04:06:25.840Z,99969.06
2019-02-24T04:08:57.578Z,99968.05
2019-02-24T04:11:29.330Z,99958.00
2019-02-24T04:14:01.132Z,99959.80
2019-02-24T04:16:32.751Z,99955.65
2019-02-24T04:19:04.236Z,99961.45
2019-02-24T04:21:35.911Z,99963.59
2019-02-24T04:24:07.730Z,99967.81
2019-02-24T04:26:39.298Z,99967.17
2019-02-24T04:29:11.251Z,99956.61
2019-02-24T04:31:42.981Z,99977.18
2019-02-24T04:34:15.683Z,99970.64
2019-02-24T04:36:47.193Z,99972.13
2019-02-24T04:39:19.875Z,99969.35
2019-02-24T04:41:51.373Z,99983.42
2019-02-24T04:44:23.261Z,99987.25
2019-02-24T04:46:54.930Z,99995.66
2019-02-24T04:49:26.597Z,99994.52
2019-02-24T04:51:59.944Z,99982.56
2019-02-24T04:54:31.615Z,99974.84
2019-02-24T04:57:03.210Z,99993.69
2019-02-24T04:59:35.404Z,99999.98
2019-02-24T05:02:07.097Z,100004.99
2019-02-24T05:04:38.672Z,100006.80
2019-02-24T05:07:10.232Z,100007.38
2019-02-24T05:09:41.750Z,100016.14
2019-02-24T05:12:13.546Z,100001.23
2019-02-24T05:14:45.135Z,100017.95
2019-02-24T05:17:16.878Z,100016.71
2019-02-24T05:19:48.535Z,100014.88
2019-02-24T05:22:20.143Z,100015.23
2019-02-24T05:24:51.820Z,100021.80
2019-02-24T05:27:23.456Z,100011.98
2019-02-24T05:29:55.278Z,100010.00
2019-02-24T05:32:26.815Z,100017.63
2019-02-24T05:34:58.356Z,100020.68
2019-02-24T05:37:30.116Z,100009.55
2019-02-24T05:40:01.599Z,100010.48
2019-02-24T05:42:33.211Z,100020.53
2019-02-24T05:45:05.030Z,100011.48
2019-02-24T05:47:36.628Z,100014.83
2019-02-24T05:50:08.777Z,100016.97
2019-02-24T05:52:40.488Z,100020.93
2019-02-24T05:55:12.137Z,100018.45
2019-02-24T05:57:43.711Z,100024.05
2019-02-24T06:00:15.320Z,100041.27
2019-02-24T06:02:46.914Z,100034.47
2019-02-24T06:05:18.541Z,100030.45
2019-02-24T06:07:50.223Z,100033.48
2019-02-24T06:10:21.974Z,100029.64
2019-02-24T06:12:53.799Z,100027.13
2019-02-24T06:15:25.620Z,100034.98
2019-02-24T06:17:57.241Z,100038.79
2019-02-24T06:20:28.852Z,100040.28
2019-02-24T06:23:00.705Z,100045.72
2019-02-24T06:25:35.442Z,100044.34
2019-02-24T06:28:07.125Z,100050.65
2019-02-24T06:30:38.952Z,100047.55
2019-02-24T06:33:10.779Z,100048.47
2019-02-24T06:35:42.530Z,100044.02
2019-02-24T06:38:14.152Z,100038.36
2019-02-24T06:40:45.590Z,100051.56
2019-02-24T06:43:20.009Z,100060.66
2019-02-24T06:45:52.210Z,100056.25
2019-02-24T06:48:24.005Z,100057.55
2019-02-24T06:51:09.866Z,100064.46
2019-02-24T06:53:44.318Z,100072.38
2019-02-24T06:56:18.615Z,100075.48
2019-02-24T06:58:50.331Z,100082.97
2019-02-24T07:01:22.144Z,100082.96
2019-02-24T07:03:54.611Z,100088.32
2019-02-24T07:06:26.385Z,100089.13
2019-02-24T07:08:58.221Z,100106.86
2019-02-24T07:11:29.675Z,100085.75
2019-02-24T07:14:01.134Z,100102.97
2019-02-24T07:16:32.837Z,100107.23
2019-02-24T07:19:04.548Z,100106.28
2019-02-24T07:21:36.423Z,100124.33
2019-02-24T07:24:08.141Z,100133.08
2019-02-24T07:26:40.096Z,100144.08
2019-02-24T07:29:11.912Z,100137.04
2019-02-24T07:31:43.575Z,100129.11
2019-02-24T07:34:15.301Z,100129.17
2019-02-24T07:36:47.510Z,100126.94
2019-02-24T07:39:19.314Z,100135.14
2019-02-24T07:41:50.869Z,100119.22
2019-02-24T07:44:22.814Z,100117.37
2019-02-24T07:46:54.750Z,100127.49
2019-02-24T07:49:27.964Z,100107.84
2019-02-24T07:52:00.138Z,100123.33
2019-02-24T07:54:31.848Z,100122.80
2019-02-24T07:57:03.688Z,100128.34
2019-02-24T07:59:35.813Z,100119.80
2019-02-24T08:02:08.461Z,100123.13
2019-02-24T08:04:43.143Z,100107.47
2019-02-24T08:07:16.411Z,100119.87
2019-02-24T08:09:48.274Z,100116.49
2019-02-24T08:12:20.480Z,100114.05
2019-02-24T08:14:53.165Z,100104.43
2019-02-24T08:17:24.764Z,100109.44
2019-02-24T08:19:56.468Z,100107.37
2019-02-24T08:22:28.468Z,100129.48
2019-02-24T08:25:00.630Z,100127.07
2019-02-24T08:27:32.441Z,100130.45
2019-02-24T08:30:04.583Z,100122.73
2019-02-24T08:32:38.083Z,100132.41
2019-02-24T08:35:10.036Z,100138.81
2019-02-24T08:37:41.736Z,100134.16
2019-02-24T08:40:14.260Z,100142.02
2019-02-24T08:42:47.288Z,100144.75
2019-02-24T08:45:20.534Z,100126.50
2019-02-24T08:47:52.941Z,100148.21
2019-02-24T08:50:25.121Z,100152.20
2019-02-24T08:52:57.003Z,100152.28
2019-02-24T08:55:29.588Z,100162.70
2019-02-24T08:58:01.402Z,100167.78
2019-02-24T09:00:33.187Z,100170.05
2019-02-24T09:03:05.596Z,100174.41
2019-02-24T09:05:38.706Z,100176.33
2019-02-24T09:08:10.671Z,100163.81
2019-02-24T09:10:42.640Z,100165.95
2019-02-24T09:13:14.981Z,100181.22
2019-02-24T09:15:47.933Z,100180.38
2019-02-24T09:18:20.296Z,100188.78
2019-02-24T09:20:52.467Z,100169.86
2019-02-24T09:23:24.958Z,100169.28
2019-02-24T09:25:58.427Z,100170.77
2019-02-24T09:28:31.050Z,100156.42
2019-02-24T09:31:04.117Z,100164.46
2019-02-24T09:33:36.246Z,100164.27
2019-02-24T09:36:11.332Z,100170.61
2019-02-24T09:38:43.225Z,100165.31
2019-02-24T09:41:15.317Z,100150.80
2019-02-24T09:43:48.552Z,100160.00
2019-02-24T09:46:20.890Z,100158.96
2019-02-24T09:48:53.312Z,100159.65
2019-02-24T09:51:25.923Z,100162.39
2019-02-24T09:53:58.459Z,100170.69
2019-02-24T09:56:30.448Z,100152.61
2019-02-24T09:59:03.403Z,100167.02
2019-02-24T10:01:35.620Z,100156.73
2019-02-24T10:04:07.741Z,100162.39
2019-02-24T10:06:40.809Z,100146.48
2019-02-24T10:09:13.444Z,100147.01
2019-02-24T10:11:46.656Z,100142.72
2019-02-24T10:14:18.664Z,100153.94
2019-02-24T10:16:51.305Z,100167.68
2019-02-24T10:19:23.113Z,100169.67
2019-02-24T10:21:55.100Z,100168.45
2019-02-24T10:24:28.043Z,100176.50
2019-02-24T10:27:00.147Z,100182.83
2019-02-24T10:29:35.213Z,100193.11
2019-02-24T10:32:07.286Z,100182.09
2019-02-24T10:34:39.502Z,100183.32
2019-02-24T10:37:11.698Z,100176.66
2019-02-24T10:39:44.088Z,100181.48
2019-02-24T10:42:15.899Z,100177.97
2019-02-24T10:44:47.774Z,100164.74
2019-02-24T10:47:20.285Z,100169.84
2019-02-24T10:49:52.221Z,100186.74
2019-02-24T10:52:24.916Z,100180.77
2019-02-24T10:54:57.028Z,100173.51
2019-02-24T10:57:29.058Z,100171.04
2019-02-24T11:00:01.070Z,100176.44
2019-02-24T11:02:34.364Z,100164.78
2019-02-24T11:05:06.727Z,100170.05
2019-02-24T11:07:39.508Z,100171.07
2019-02-24T11:10:13.975Z,100161.60
2019-02-24T11:12:46.152Z,100158.44
2019-02-24T11:15:18.416Z,100143.05
2019-02-24T11:17:50.433Z,100142.97
2019-02-24T11:20:22.556Z,100145.75
2019-02-24T11:22:55.119Z,100142.25
2019-02-24T11:25:26.977Z,100135.65
2019-02-24T11:27:59.515Z,100122.39
2019-02-24T11:30:33.671Z,100122.19
2019-02-24T11:33:06.769Z,100127.63
2019-02-24T11:35:39.604Z,100101.70
2019-02-24T11:38:11.573Z,100094.30
2019-02-24T11:40:43.765Z,100105.19
2019-02-24T11:43:16.034Z,100080.47
2019-02-24T11:45:48.330Z,100098.58
2019-02-24T11:48:21.668Z,100090.19
2019-02-24T11:50:53.627Z,100091.48
2019-02-24T11:53:25.907Z,100084.37
2019-02-24T11:55:59.230Z,100085.91
2019-02-24T11:58:32.203Z,100094.06
2019-02-24T12:01:04.695Z,100084.72
2019-02-24T12:03:36.820Z,100091.28
2019-02-24T12:06:09.096Z,100089.16
2019-02-24T12:08:41.231Z,100101.07
2019-02-24T12:11:14.499Z,100109.25
2019-02-24T12:13:46.579Z,100108.24
2019-02-24T12:16:19.257Z,100095.70
2019-02-24T12:18:51.993Z,100088.64
2019-02-24T12:21:23.919Z,100105.72
2019-02-24T12:23:55.803Z,100113.77
2019-02-24T12:26:28.095Z,100103.00
2019-02-24T12:29:00.017Z,100104.84
2019-02-24T12:31:32.080Z,100114.72
2019-02-24T12:34:04.245Z,100094.59
2019-02-24T12:36:36.581Z,100089.02
2019-02-24T12:39:08.796Z,100086.93
2019-02-24T12:41:40.868Z,100078.91
2019-02-24T12:44:12.976Z,100081.33
2019-02-24T12:46:45.876Z,100085.42
2019-02-24T12:49:18.558Z,100082.59
2019-02-24T12:51:51.329Z,100087.53
2019-02-24T12:54:23.740Z,100081.08
2019-02-24T12:56:56.032Z,100059.55
2019-02-24T12:59:28.648Z,100071.56
2019-02-24T13:02:05.679Z,100072.61
2019-02-24T13:04:35.133Z,100065.30
2019-02-24T13:07:07.861Z,100047.41
2019-02-24T13:09:41.329Z,100069.04
2019-02-24T13:12:13.602Z,100076.27
2019-02-24T13:14:46.417Z,100079.00
2019-02-24T13:17:19.308Z,100072.00
2019-02-24T13:19:51.371Z,100075.41
2019-02-24T13:22:23.687Z,100082.97
2019-02-24T13:24:56.215Z,100080.03
2019-02-24T13:27:28.206Z,100055.45
2019-02-24T13:30:00.376Z,100060.50
2019-02-24T14:08:19.351Z,100073.05
2019-02-24T14:10:52.271Z,100078.36
2019-02-24T14:13:24.245Z,100075.59
2019-02-24T14:15:56.261Z,100077.80
2019-02-24T14:18:29.812Z,100091.07
2019-02-24T14:21:03.372Z,100081.93
2019-02-24T14:23:36.582Z,100084.66
2019-02-24T14:26:08.451Z,100074.34
2019-02-24T14:28:41.284Z,100078.11
2019-02-24T14:31:14.471Z,100078.70
2019-02-24T14:33:47.435Z,100074.94
2019-02-24T14:36:20.245Z,100064.64
2019-02-24T14:38:52.897Z,100061.05
2019-02-24T14:41:26.114Z,100059.16
2019-02-24T14:43:58.762Z,100054.37
2019-02-24T14:46:31.490Z,100049.17
2019-02-24T14:49:03.886Z,100047.26
2019-02-24T14:51:36.912Z,100046.41
2019-02-24T14:54:10.455Z,100048.58
2019-02-24T14:56:43.723Z,100046.05
2019-02-24T14:59:16.514Z,100049.89
2019-02-24T15:01:49.160Z,100044.89
2019-02-24T15:04:21.663Z,100045.33
2019-02-24T15:06:53.833Z,100054.88
2019-02-24T15:09:27.542Z,100056.52
2019-02-24T15:11:59.776Z,100058.20
2019-02-24T15:14:31.682Z,100057.34
2019-02-24T15:17:03.757Z,100052.05
2019-02-24T15:19:35.455Z,100060.53
2019-02-24T15:22:08.351Z,100057.27
2019-02-24T15:24:40.567Z,100061.61
2019-02-24T15:27:13.138Z,100050.81
2019-02-24T15:29:45.013Z,100062.63
2019-02-24T15:32:17.518Z,100065.08
2019-02-24T15:34:49.881Z,100059.17
2019-02-24T15:37:21.908Z,100067.13
2019-02-24T15:39:54.198Z,100065.55
2019-02-24T15:42:26.151Z,100057.77
2019-02-24T15:44:59.742Z,100052.13
2019-02-24T15:47:31.835Z,100055.80
2019-02-24T15:50:05.952Z,100039.20
2019-02-24T15:52:38.981Z,100040.77
2019-02-24T15:55:13.697Z,100038.62
2019-02-24T15:57:46.359Z,100057.37
2019-02-24T16:00:21.490Z,100046.70
2019-02-24T16:03:01.190Z,100039.30
2019-02-24T16:05:28.748Z,100046.14
2019-02-24T16:08:04.117Z,100041.78
2019-02-24T16:10:38.169Z,100048.09
2019-02-24T16:13:17.049Z,100033.83
2019-02-24T16:15:48.417Z,100042.91
2019-02-24T16:18:22.112Z,100043.83
2019-02-24T16:20:56.447Z,100047.22
2019-02-24T16:23:30.494Z,100052.67
2019-02-24T16:26:05.143Z,100054.11
2019-02-24T16:28:39.415Z,100045.98
2019-02-24T16:31:13.109Z,100058.30
2019-02-24T16:33:46.986Z,100054.87
2019-02-24T16:36:20.798Z,100054.98
2019-02-24T16:38:54.626Z,100070.61
2019-02-24T16:41:30.907Z,100068.23
2019-02-24T16:44:04.732Z,100073.14
2019-02-24T16:46:39.552Z,100078.70
2019-02-24T16:49:12.992Z,100084.72
2019-02-24T16:51:46.290Z,100075.36
2019-02-24T16:54:20.178Z,100075.42
2019-02-24T16:56:54.142Z,100071.52
2019-02-24T16:59:28.184Z,100080.30
2019-02-24T17:02:02.327Z,100084.50
2019-02-24T17:04:36.199Z,100081.30
2019-02-24T17:07:09.946Z,100085.02
2019-02-24T17:09:47.114Z,100082.02
2019-02-24T17:12:21.293Z,100080.66
2019-02-24T17:14:58.181Z,100077.61
2019-02-24T17:17:31.363Z,100087.59
2019-02-24T17:20:04.583Z,100083.71
2019-02-24T17:22:39.781Z,100083.63
2019-02-24T17:25:16.385Z,100090.63
2019-02-24T17:27:50.015Z,100095.68
2019-02-24T17:30:23.938Z,100089.48
2019-02-24T17:32:57.839Z,100087.30
2019-02-24T17:35:31.854Z,100081.81
2019-02-24T17:38:05.706Z,100086.06
2019-02-24T17:40:39.434Z,100095.09
2019-02-24T17:43:13.964Z,100091.68
2019-02-24T17:45:47.801Z,100090.77
2019-02-24T17:48:21.180Z,100086.66
2019-02-24T17:50:55.020Z,100093.28
2019-02-24T17:53:29.114Z,100093.48
2019-02-24T17:56:03.006Z,100097.58
2019-02-24T17:58:37.017Z,100105.91
2019-02-24T18:01:11.357Z,100108.39
2019-02-24T18:03:44.388Z,100121.67
2019-02-24T18:06:20.955Z,100128.09
2019-02-24T18:08:54.383Z,100133.20
2019-02-24T18:11:28.391Z,100126.55
2019-02-24T18:14:01.303Z,100118.64
2019-02-24T18:16:34.677Z,100124.73
2019-02-24T18:19:08.709Z,100115.05
2019-02-24T18:21:41.583Z,100125.21
2019-02-24T18:24:15.116Z,100130.19
2019-02-24T18:26:47.236Z,100132.03
2019-02-24T18:29:20.103Z,100140.58
2019-02-24T18:31:52.972Z,100138.70
2019-02-24T18:34:27.567Z,100138.33
2019-02-24T18:37:00.176Z,100147.60
2019-02-24T18:39:33.166Z,100142.03
2019-02-24T18:42:06.245Z,100140.36
2019-02-24T18:44:38.941Z,100144.30
2019-02-24T18:47:13.897Z,100140.69
2019-02-24T18:49:49.300Z,100132.66
2019-02-24T18:52:22.340Z,100133.03
2019-02-24T18:54:54.625Z,100139.02
2019-02-24T18:57:28.040Z,100135.45
2019-02-24T19:00:02.868Z,100150.78
2019-02-24T19:02:35.181Z,100155.95
2019-02-24T19:05:08.866Z,100156.38
2019-02-24T19:07:42.576Z,100164.88
2019-02-24T19:10:16.944Z,100165.42
2019-02-24T19:12:49.758Z,100173.65
2019-02-24T19:15:24.205Z,100174.70
2019-02-24T19:17:56.925Z,100172.03
2019-02-24T19:20:29.956Z,100166.23
2019-02-24T19:23:02.882Z,100173.52
2019-02-24T19:25:35.217Z,100179.73
2019-02-24T19:28:07.826Z,100173.31
2019-02-24T19:30:40.799Z,100180.06
2019-02-24T19:33:14.401Z,100184.08
2019-02-24T19:35:47.090Z,100189.48
2019-02-24T19:38:19.842Z,100183.80
2019-02-24T19:40:53.097Z,100184.28
2019-02-24T19:43:25.528Z,100193.24
2019-02-24T19:45:57.942Z,100206.66
2019-02-24T19:48:32.291Z,100205.79
2019-02-24T19:51:05.015Z,100219.73
2019-02-24T19:53:37.604Z,100215.73
2019-02-24T19:56:10.500Z,100205.42
2019-02-24T19:58:46.951Z,100204.39
2019-02-24T20:01:18.830Z,100209.44
2019-02-24T20:03:52.933Z,100214.86
2019-02-24T20:06:24.962Z,100213.05
2019-02-24T20:08:58.471Z,100221.75
2019-02-24T20:11:30.581Z,100221.80
2019-02-24T20:14:02.532Z,100226.45
2019-02-24T20:16:34.695Z,100239.63
2019-02-24T20:19:07.092Z,100225.85
2019-02-24T20:21:39.664Z,100227.11
2019-02-24T20:24:14.364Z,100216.77
2019-02-24T20:26:47.595Z,100222.70
2019-02-24T20:29:20.305Z,100222.41
2019-02-24T20:31:52.201Z,100230.67
2019-02-24T20:34:25.734Z,100227.66
2019-02-24T20:37:00.912Z,100241.09
2019-02-24T20:39:33.127Z,100233.52
2019-02-24T20:42:05.471Z,100234.88
2019-02-24T20:44:39.642Z,100240.98
2019-02-24T20:47:12.918Z,100243.58
2019-02-24T20:49:45.850Z,100237.98
2019-02-24T20:52:18.512Z,100236.64
2019-02-24T20:54:51.172Z,100236.56
2019-02-24T20:57:24.060Z,100236.72
2019-02-24T20:59:56.882Z,100234.30
2019-02-24T21:02:29.612Z,100243.14
2019-02-24T21:05:02.363Z,100243.41
2019-02-24T21:07:34.487Z,100243.41
2019-02-24T21:10:06.531Z,100238.31
2019-02-24T21:12:38.977Z,100240.03
2019-02-24T21:15:12.555Z,100239.92
2019-02-24T21:17:44.947Z,100244.41
2019-02-24T21:20:20.411Z,100246.34
2019-02-24T21:22:52.203Z,100239.99
2019-02-24T21:25:24.314Z,100246.63
2019-02-24T21:27:57.141Z,100250.61
2019-02-24T21:30:31.689Z,100262.36
2019-02-24T21:33:05.578Z,100259.48
2019-02-24T21:35:38.081Z,100254.91
2019-02-24T21:38:09.934Z,100261.19
2019-02-24T21:40:42.020Z,100258.61
2019-02-24T21:43:14.443Z,100264.20
2019-02-24T21:45:46.921Z,100272.95
2019-02-24T21:48:20.195Z,100259.36
2019-02-24T21:50:52.952Z,100266.28
2019-02-24T21:53:25.074Z,100267.78
2019-02-24T21:55:57.626Z,100262.77
2019-02-24T21:58:29.661Z,100257.86
2019-02-24T22:01:01.713Z,100262.66
2019-02-24T22:03:33.555Z,100263.27
2019-02-24T22:06:05.659Z,100269.30
2019-02-24T22:08:37.677Z,100282.34
2019-02-24T22:11:10.185Z,100297.52
2019-02-24T22:13:42.795Z,100298.30
2019-02-24T22:16:15.213Z,100292.88
2019-02-24T22:18:46.964Z,100295.39
2019-02-24T22:21:19.462Z,100281.20
2019-02-24T22:23:52.084Z,100276.00
2019-02-24T22:26:23.849Z,100274.60
2019-02-24T22:28:55.504Z,100266.39
2019-02-24T22:31:27.477Z,100264.70
2019-02-24T22:33:59.452Z,100253.91
2019-02-24T22:36:31.377Z,100266.10
2019-02-24T22:39:03.394Z,100266.78
2019-02-24T22:41:35.407Z,100261.59
2019-02-24T22:44:07.300Z,100258.14
2019-02-24T22:46:39.030Z,100263.09
2019-02-24T22:49:10.866Z,100258.49
2019-02-24T22:51:42.579Z,100256.52
2019-02-24T22:54:14.614Z,100263.48
2019-02-24T22:56:46.402Z,100254.95
2019-02-24T22:59:18.181Z,100261.44
2019-02-24T23:01:51.287Z,100259.78
2019-02-24T23:04:23.434Z,100257.27
2019-02-24T23:06:55.237Z,100267.15
2019-02-24T23:09:26.948Z,100261.69
2019-02-24T23:12:00.543Z,100256.06
2019-02-24T23:14:32.408Z,100261.23
2019-02-24T23:17:04.180Z,100267.61
2019-02-24T23:19:35.932Z,100269.82
2019-02-24T23:22:07.679Z,100277.59
2019-02-24T23:24:39.459Z,100277.31
2019-02-24T23:27:11.084Z,100278.69
2019-02-24T23:29:43.223Z,100271.87
2019-02-24T23:32:14.818Z,100270.31
2019-02-24T23:34:46.589Z,100268.35
2019-02-24T23:37:18.712Z,100266.84
2019-02-24T23:39:50.726Z,100273.79
2019-02-24T23:42:22.562Z,100279.85
2019-02-24T23:44:54.284Z,100279.40
2019-02-24T23:47:26.415Z,100273.33
2019-02-24T23:49:58.142Z,100272.52
2019-02-24T23:52:29.617Z,100270.00
2019-02-24T23:55:01.222Z,100276.80
2019-02-24T23:57:33.078Z,100272.58
